createdAt,value
2023-05-15T00:00:15.367Z,25.53
2023-05-15T00:01:15.414Z,25.53
2023-05-15T00:02:15.469Z,25.53
2023-05-15T00:03:15.550Z,25.53
2023-05-15T00:04:15.587Z,25.53
2023-05-15T00:05:15.660Z,25.54
2023-05-15T00:06:15.669Z,25.50
2023-05-15T00:07:15.744Z,25.53
2023-05-15T00:08:15.782Z,25.53
2023-05-15T00:09:15.831Z,25.51
2023-05-15T00:10:15.898Z,25.53
2023-05-15T00:11:15.941Z,25.50
2023-05-15T00:12:15.993Z,25.51
2023-05-15T00:13:16.050Z,25.53
2023-05-15T00:14:16.101Z,25.54
2023-05-15T00:15:16.158Z,25.50
2023-05-15T00:16:16.279Z,25.51
2023-05-15T00:17:16.251Z,25.51
2023-05-15T00:18:16.310Z,25.50
2023-05-15T00:19:16.475Z,25.50
2023-05-15T00:20:16.461Z,25.50
2023-05-15T00:21:16.478Z,25.51
2023-05-15T00:22:16.548Z,25.50
2023-05-15T00:23:16.605Z,25.51
2023-05-15T00:24:16.637Z,25.50
2023-05-15T00:25:16.671Z,25.49
2023-05-15T00:26:16.740Z,25.49
2023-05-15T00:27:16.773Z,25.47
2023-05-15T00:28:16.830Z,25.50
2023-05-15T00:29:16.892Z,25.50
2023-05-15T00:30:16.953Z,25.49
2023-05-15T00:31:17.097Z,25.49
2023-05-15T00:32:17.086Z,25.51
2023-05-15T00:33:17.127Z,25.50
2023-05-15T00:34:17.165Z,25.50
2023-05-15T00:35:17.218Z,25.49
2023-05-15T00:36:17.292Z,25.49
2023-05-15T00:37:17.340Z,25.50
2023-05-15T00:38:17.407Z,25.51
2023-05-15T00:39:17.450Z,25.51
2023-05-15T00:40:17.483Z,25.46
2023-05-15T00:41:17.555Z,25.49
2023-05-15T00:42:17.611Z,25.47
2023-05-15T00:43:17.696Z,25.47
2023-05-15T00:44:17.724Z,25.49
2023-05-15T00:45:17.771Z,25.49
2023-05-15T00:46:17.846Z,25.50
2023-05-15T00:47:17.981Z,25.50
2023-05-15T00:48:17.926Z,25.51
2023-05-15T00:49:17.995Z,25.49
2023-05-15T00:50:18.043Z,25.49
2023-05-15T00:51:18.092Z,25.49
2023-05-15T00:52:18.238Z,25.49
2023-05-15T00:53:18.199Z,25.50
2023-05-15T00:54:18.324Z,25.50
2023-05-15T00:55:18.356Z,25.49
2023-05-15T00:56:18.401Z,25.50
2023-05-15T00:57:18.447Z,25.47
2023-05-15T00:58:18.548Z,25.49
2023-05-15T00:59:18.563Z,25.47
2023-05-15T01:00:18.618Z,25.49
2023-05-15T01:01:18.706Z,25.46
2023-05-15T01:02:18.782Z,25.46
2023-05-15T01:03:18.790Z,25.49
2023-05-15T01:04:18.813Z,25.47
2023-05-15T01:05:18.877Z,25.46
2023-05-15T01:06:18.920Z,25.44
2023-05-15T01:07:18.986Z,25.46
2023-05-15T01:08:19.042Z,25.47
2023-05-15T01:09:19.140Z,25.49
2023-05-15T01:10:19.149Z,25.47
2023-05-15T01:11:19.188Z,25.49
2023-05-15T01:12:19.258Z,25.49
2023-05-15T01:13:19.303Z,25.49
2023-05-15T01:14:19.360Z,25.46
2023-05-15T01:15:19.425Z,25.47
2023-05-15T01:16:19.491Z,25.46
2023-05-15T01:17:19.511Z,25.46
2023-05-15T01:18:19.635Z,25.47
2023-05-15T01:19:19.683Z,25.46
2023-05-15T01:20:19.703Z,25.46
2023-05-15T01:21:19.750Z,25.47
2023-05-15T01:22:19.811Z,25.44
2023-05-15T01:23:19.836Z,25.46
2023-05-15T01:24:19.900Z,25.46
2023-05-15T01:25:19.961Z,25.46
2023-05-15T01:26:20.044Z,25.42
2023-05-15T01:27:20.093Z,25.44
2023-05-15T01:28:20.141Z,25.47
2023-05-15T01:29:20.170Z,25.46
2023-05-15T01:30:20.234Z,25.46
2023-05-15T01:31:20.309Z,25.43
2023-05-15T01:32:20.420Z,25.46
2023-05-15T01:33:20.400Z,25.44
2023-05-15T01:34:20.454Z,25.44
2023-05-15T01:35:20.581Z,25.44
2023-05-15T01:36:20.584Z,25.43
2023-05-15T01:37:20.639Z,25.46
2023-05-15T01:38:20.678Z,25.46
2023-05-15T01:39:20.720Z,25.46
2023-05-15T01:40:20.772Z,25.43
2023-05-15T01:41:20.832Z,25.43
2023-05-15T01:42:20.912Z,25.46
2023-05-15T01:43:20.963Z,25.43
2023-05-15T01:44:21.017Z,25.43
2023-05-15T01:45:21.062Z,25.43
2023-05-15T01:46:21.205Z,25.44
2023-05-15T01:47:21.243Z,25.42
2023-05-15T01:48:21.248Z,25.44
2023-05-15T01:49:21.312Z,25.43
2023-05-15T01:50:21.393Z,25.46
2023-05-15T01:51:21.395Z,25.44
2023-05-15T01:52:21.465Z,25.44
2023-05-15T01:53:21.522Z,25.42
2023-05-15T01:54:21.588Z,25.44
2023-05-15T01:55:21.621Z,25.40
2023-05-15T01:56:21.696Z,25.43
2023-05-15T01:57:21.730Z,25.42
2023-05-15T01:58:21.819Z,25.40
2023-05-15T01:59:21.860Z,25.40
2023-05-15T02:00:21.930Z,25.43
2023-05-15T02:01:22.049Z,25.46
2023-05-15T02:02:22.184Z,25.43
2023-05-15T02:03:22.250Z,25.42
2023-05-15T02:04:22.161Z,25.43
2023-05-15T02:05:22.210Z,25.43
2023-05-15T02:06:22.290Z,25.42
2023-05-15T02:07:22.326Z,25.43
2023-05-15T02:08:22.382Z,25.42
2023-05-15T02:09:22.433Z,25.42
2023-05-15T02:10:22.498Z,25.40
2023-05-15T02:11:22.577Z,25.42
2023-05-15T02:12:22.655Z,25.40
2023-05-15T02:13:22.664Z,25.42
2023-05-15T02:14:22.723Z,25.40
2023-05-15T02:15:23.142Z,25.40
2023-05-15T02:16:22.918Z,25.43
2023-05-15T02:17:22.924Z,25.42
2023-05-15T02:18:22.982Z,25.40
2023-05-15T02:19:23.016Z,25.40
2023-05-15T02:20:23.060Z,25.40
2023-05-15T02:21:23.125Z,25.40
2023-05-15T02:22:23.157Z,25.40
2023-05-15T02:23:23.237Z,25.40
2023-05-15T02:24:23.285Z,25.39
2023-05-15T02:25:23.535Z,25.39
2023-05-15T02:26:23.399Z,25.40
2023-05-15T02:27:23.461Z,25.43
2023-05-15T02:28:23.528Z,25.40
2023-05-15T02:29:23.591Z,25.39
2023-05-15T02:30:23.617Z,25.40
2023-05-15T02:31:24.498Z,25.40
2023-05-15T02:32:23.801Z,25.40
2023-05-15T02:33:23.813Z,25.40
2023-05-15T02:34:23.854Z,25.39
2023-05-15T02:35:24.107Z,25.40
2023-05-15T02:36:23.981Z,25.39
2023-05-15T02:37:24.036Z,25.39
2023-05-15T02:38:24.152Z,25.40
2023-05-15T02:39:24.153Z,25.39
2023-05-15T02:40:24.196Z,25.39
2023-05-15T02:41:24.277Z,25.39
2023-05-15T02:42:24.303Z,25.37
2023-05-15T02:43:24.379Z,25.39
2023-05-15T02:44:24.420Z,25.39
2023-05-15T02:45:24.791Z,25.39
2023-05-15T02:46:24.577Z,25.39
2023-05-15T02:47:24.603Z,25.39
2023-05-15T02:48:24.652Z,25.39
2023-05-15T02:49:24.731Z,25.39
2023-05-15T02:50:24.781Z,25.40
2023-05-15T02:51:24.842Z,25.37
2023-05-15T02:52:24.896Z,25.40
2023-05-15T02:53:24.947Z,25.40
2023-05-15T02:54:25.009Z,25.39
2023-05-15T02:55:25.333Z,25.39
2023-05-15T02:56:25.127Z,25.39
2023-05-15T02:57:25.179Z,25.37
2023-05-15T02:58:25.215Z,25.36
2023-05-15T02:59:25.301Z,25.40
2023-05-15T03:00:25.340Z,25.40
2023-05-15T03:01:25.478Z,25.37
2023-05-15T03:02:25.534Z,25.36
2023-05-15T03:03:25.502Z,25.36
2023-05-15T03:04:25.604Z,25.39
2023-05-15T03:05:25.917Z,25.37
2023-05-15T03:06:25.692Z,25.39
2023-05-15T03:07:25.721Z,25.37
2023-05-15T03:08:25.806Z,25.37
2023-05-15T03:09:25.868Z,25.37
2023-05-15T03:10:25.918Z,25.36
2023-05-15T03:11:25.965Z,25.36
2023-05-15T03:12:26.082Z,25.37
2023-05-15T03:13:26.099Z,25.36
2023-05-15T03:14:26.126Z,25.39
2023-05-15T03:15:26.486Z,25.37
2023-05-15T03:16:26.279Z,25.36
2023-05-15T03:17:26.328Z,25.36
2023-05-15T03:18:26.391Z,25.34
2023-05-15T03:19:26.428Z,25.39
2023-05-15T03:20:26.478Z,25.37
2023-05-15T03:21:26.543Z,25.37
2023-05-15T03:22:26.613Z,25.36
2023-05-15T03:23:26.651Z,25.36
2023-05-15T03:24:26.733Z,25.36
2023-05-15T03:25:27.146Z,25.36
2023-05-15T03:26:26.831Z,25.36
2023-05-15T03:27:26.891Z,25.36
2023-05-15T03:28:26.939Z,25.36
2023-05-15T03:29:26.983Z,25.37
2023-05-15T03:30:27.033Z,25.34
2023-05-15T03:31:27.184Z,25.34
2023-05-15T03:32:27.148Z,25.36
2023-05-15T03:33:27.204Z,25.34
2023-05-15T03:34:27.233Z,25.34
2023-05-15T03:35:27.325Z,25.34
2023-05-15T03:36:27.344Z,25.36
2023-05-15T03:37:27.417Z,25.36
2023-05-15T03:38:27.453Z,25.36
2023-05-15T03:39:27.523Z,25.36
2023-05-15T03:40:27.569Z,25.34
2023-05-15T03:41:27.633Z,25.34
2023-05-15T03:42:27.687Z,25.36
2023-05-15T03:43:27.735Z,25.33
2023-05-15T03:44:27.822Z,25.34
2023-05-15T03:45:28.194Z,25.34
2023-05-15T03:46:27.962Z,25.34
2023-05-15T03:47:28.036Z,25.34
2023-05-15T03:48:28.030Z,25.33
2023-05-15T03:49:28.088Z,25.34
2023-05-15T03:50:28.112Z,25.33
2023-05-15T03:51:28.206Z,25.37
2023-05-15T03:52:28.252Z,25.33
2023-05-15T03:53:28.321Z,25.34
2023-05-15T03:54:28.373Z,25.33
2023-05-15T03:55:28.440Z,25.34
2023-05-15T03:56:28.484Z,25.34
2023-05-15T03:57:28.529Z,25.33
2023-05-15T03:58:28.570Z,25.36
2023-05-15T03:59:28.640Z,25.33
2023-05-15T04:00:28.698Z,25.33
2023-05-15T04:01:28.761Z,25.33
2023-05-15T04:02:28.866Z,25.32
2023-05-15T04:03:28.966Z,25.34
2023-05-15T04:04:28.951Z,25.32
2023-05-15T04:05:29.121Z,25.33
2023-05-15T04:06:29.036Z,25.32
2023-05-15T04:07:29.119Z,25.32
2023-05-15T04:08:29.169Z,25.33
2023-05-15T04:09:29.220Z,25.34
2023-05-15T04:10:29.292Z,25.33
2023-05-15T04:11:29.337Z,25.33
2023-05-15T04:12:29.401Z,25.32
2023-05-15T04:13:29.441Z,25.32
2023-05-15T04:14:29.562Z,25.34
2023-05-15T04:15:29.580Z,25.33
2023-05-15T04:16:29.640Z,25.34
2023-05-15T04:17:29.742Z,25.33
2023-05-15T04:18:29.778Z,25.33
2023-05-15T04:19:29.811Z,25.33
2023-05-15T04:20:29.861Z,25.32
2023-05-15T04:21:29.940Z,25.33
2023-05-15T04:22:30.003Z,25.34
2023-05-15T04:23:30.044Z,25.34
2023-05-15T04:24:30.101Z,25.32
2023-05-15T04:25:30.153Z,25.36
2023-05-15T04:26:30.250Z,25.36
2023-05-15T04:27:30.277Z,25.32
2023-05-15T04:28:30.616Z,25.33
2023-05-15T04:29:30.380Z,25.33
2023-05-15T04:30:30.457Z,25.33
2023-05-15T04:31:30.519Z,25.34
2023-05-15T04:32:30.563Z,25.33
2023-05-15T04:33:30.627Z,25.33
2023-05-15T04:34:30.692Z,25.34
2023-05-15T04:35:30.749Z,25.32
2023-05-15T04:36:30.808Z,25.33
2023-05-15T04:37:30.851Z,25.33
2023-05-15T04:38:30.922Z,25.32
2023-05-15T04:39:30.952Z,25.36
2023-05-15T04:40:31.025Z,25.36
2023-05-15T04:41:31.052Z,25.34
2023-05-15T04:42:31.138Z,25.34
2023-05-15T04:43:31.181Z,25.33
2023-05-15T04:44:31.211Z,25.33
2023-05-15T04:45:31.289Z,25.36
2023-05-15T04:46:31.378Z,25.33
2023-05-15T04:47:31.362Z,25.32
2023-05-15T04:48:31.411Z,25.34
2023-05-15T04:49:31.444Z,25.36
2023-05-15T04:50:31.502Z,25.33
2023-05-15T04:51:31.552Z,25.33
2023-05-15T04:52:31.620Z,25.34
2023-05-15T04:53:31.665Z,25.34
2023-05-15T04:54:31.748Z,25.33
2023-05-15T04:55:31.895Z,25.34
2023-05-15T04:56:31.799Z,25.36
2023-05-15T04:57:31.861Z,25.37
2023-05-15T04:58:31.936Z,25.33
2023-05-15T04:59:31.968Z,25.34
2023-05-15T05:00:32.020Z,25.34
2023-05-15T05:01:32.095Z,25.34
2023-05-15T05:02:32.161Z,25.34
2023-05-15T05:03:32.238Z,25.34
2023-05-15T05:04:32.282Z,25.34
2023-05-15T05:05:32.309Z,25.33
2023-05-15T05:06:32.395Z,25.34
2023-05-15T05:07:32.418Z,25.36
2023-05-15T05:08:32.477Z,25.36
2023-05-15T05:09:32.545Z,25.33
2023-05-15T05:10:32.654Z,25.36
2023-05-15T05:11:32.667Z,25.33
2023-05-15T05:12:32.717Z,25.32
2023-05-15T05:13:32.762Z,25.36
2023-05-15T05:14:32.818Z,25.33
2023-05-15T05:15:32.904Z,25.33
2023-05-15T05:16:33.088Z,25.36
2023-05-15T05:17:33.032Z,25.34
2023-05-15T05:18:33.090Z,25.34
2023-05-15T05:19:33.124Z,25.33
2023-05-15T05:20:33.163Z,25.36
2023-05-15T05:21:33.237Z,25.34
2023-05-15T05:22:33.278Z,25.34
2023-05-15T05:23:33.325Z,25.34
2023-05-15T05:24:33.360Z,25.34
2023-05-15T05:25:33.392Z,25.37
2023-05-15T05:26:33.464Z,25.36
2023-05-15T05:27:33.485Z,25.36
2023-05-15T05:28:33.597Z,25.37
2023-05-15T05:29:33.617Z,25.40
2023-05-15T05:30:33.673Z,25.37
2023-05-15T05:31:34.077Z,25.40
2023-05-15T05:32:33.807Z,25.44
2023-05-15T05:33:33.816Z,25.44
2023-05-15T05:34:33.887Z,25.46
2023-05-15T05:35:33.946Z,25.47
2023-05-15T05:36:34.017Z,25.49
2023-05-15T05:37:34.038Z,25.51
2023-05-15T05:38:34.100Z,25.54
2023-05-15T05:39:34.143Z,25.57
2023-05-15T05:40:34.183Z,25.57
2023-05-15T05:41:34.247Z,25.63
2023-05-15T05:42:34.302Z,25.67
2023-05-15T05:43:34.306Z,25.70
2023-05-15T05:44:34.355Z,25.76
2023-05-15T05:45:34.399Z,25.79
2023-05-15T05:46:34.447Z,25.84
2023-05-15T05:47:34.485Z,25.84
2023-05-15T05:48:34.454Z,25.90
2023-05-15T05:49:34.468Z,25.95
2023-05-15T05:50:34.510Z,25.95
2023-05-15T05:51:34.510Z,26.01
2023-05-15T05:52:34.963Z,26.02
2023-05-15T05:53:34.549Z,26.05
2023-05-15T05:54:34.544Z,26.08
2023-05-15T05:55:34.551Z,26.14
2023-05-15T05:56:34.564Z,26.14
2023-05-15T05:57:34.573Z,26.17
2023-05-15T05:58:34.606Z,26.22
2023-05-15T05:59:34.600Z,26.22
2023-05-15T06:00:34.590Z,26.27
2023-05-15T06:01:34.589Z,26.27
2023-05-15T06:02:35.008Z,26.28
2023-05-15T06:03:34.760Z,26.31
2023-05-15T06:04:34.805Z,26.35
2023-05-15T06:05:34.651Z,26.36
2023-05-15T06:06:34.621Z,26.38
2023-05-15T06:07:34.651Z,26.41
2023-05-15T06:08:34.672Z,26.39
2023-05-15T06:09:34.692Z,26.43
2023-05-15T06:10:34.621Z,26.42
2023-05-15T06:11:34.652Z,26.45
2023-05-15T06:12:34.987Z,26.45
2023-05-15T06:13:34.707Z,26.45
2023-05-15T06:14:34.754Z,26.48
2023-05-15T06:15:34.842Z,26.49
2023-05-15T06:16:34.931Z,26.48
2023-05-15T06:17:34.971Z,26.49
2023-05-15T06:18:34.937Z,26.49
2023-05-15T06:19:34.969Z,26.52
2023-05-15T06:20:34.968Z,26.51
2023-05-15T06:21:34.962Z,26.52
2023-05-15T06:22:34.980Z,26.55
2023-05-15T06:23:35.081Z,26.55
2023-05-15T06:24:35.150Z,26.55
2023-05-15T06:25:35.259Z,26.56
2023-05-15T06:26:35.347Z,26.59
2023-05-15T06:27:35.339Z,26.58
2023-05-15T06:28:35.356Z,26.53
2023-05-15T06:29:35.369Z,26.55
2023-05-15T06:30:35.433Z,26.53
2023-05-15T06:31:35.393Z,26.55
2023-05-15T06:32:35.440Z,26.59
2023-05-15T06:33:35.459Z,26.60
2023-05-15T06:34:35.557Z,26.62
2023-05-15T06:35:35.639Z,26.62
2023-05-15T06:36:35.733Z,26.60
2023-05-15T06:37:35.977Z,26.64
2023-05-15T06:38:35.888Z,26.63
2023-05-15T06:39:35.866Z,26.63
2023-05-15T06:40:35.877Z,26.64
2023-05-15T06:41:35.962Z,26.64
2023-05-15T06:42:35.973Z,26.64
2023-05-15T06:43:36.523Z,26.64
2023-05-15T06:44:36.011Z,26.63
2023-05-15T06:45:36.062Z,26.64
2023-05-15T06:46:36.129Z,26.63
2023-05-15T06:47:36.223Z,26.64
2023-05-15T06:48:36.257Z,26.64
2023-05-15T06:49:36.302Z,26.64
2023-05-15T06:50:36.328Z,26.63
2023-05-15T06:51:36.326Z,26.64
2023-05-15T06:52:36.347Z,26.64
2023-05-15T06:53:36.394Z,26.62
2023-05-15T06:54:36.464Z,26.64
2023-05-15T06:55:36.498Z,26.66
2023-05-15T06:56:36.528Z,26.64
2023-05-15T06:57:36.565Z,26.68
2023-05-15T06:58:36.612Z,26.68
2023-05-15T06:59:36.654Z,26.66
2023-05-15T07:00:36.684Z,26.66
2023-05-15T07:01:36.743Z,26.63
2023-05-15T07:02:36.963Z,26.64
2023-05-15T07:03:36.768Z,26.63
2023-05-15T07:04:36.842Z,26.62
2023-05-15T07:05:36.772Z,26.60
2023-05-15T07:06:36.930Z,26.60
2023-05-15T07:07:36.993Z,26.59
2023-05-15T07:08:36.970Z,26.59
2023-05-15T07:09:36.995Z,26.56
2023-05-15T07:10:36.998Z,26.55
2023-05-15T07:11:36.986Z,26.55
2023-05-15T07:12:36.997Z,26.53
2023-05-15T07:13:37.101Z,26.52
2023-05-15T07:14:37.109Z,26.52
2023-05-15T07:15:37.132Z,26.52
2023-05-15T07:16:37.127Z,26.52
2023-05-15T07:17:37.605Z,26.52
2023-05-15T07:18:37.218Z,26.52
2023-05-15T07:19:37.192Z,26.52
2023-05-15T07:20:37.524Z,26.52
2023-05-15T07:21:37.148Z,26.52
2023-05-15T07:22:44.568Z,26.53
2023-05-15T07:23:38.107Z,26.49
2023-05-15T07:24:39.715Z,26.51
2023-05-15T07:25:37.125Z,26.51
2023-05-15T07:26:46.629Z,26.53
2023-05-15T07:27:38.506Z,26.56
2023-05-15T07:28:37.096Z,26.60
2023-05-15T07:29:37.071Z,26.60
2023-05-15T07:30:37.065Z,26.60
2023-05-15T07:31:37.108Z,26.66
2023-05-15T07:32:37.082Z,26.75
2023-05-15T07:33:37.046Z,26.79
2023-05-15T07:34:37.139Z,26.86
2023-05-15T07:35:37.111Z,26.90
2023-05-15T07:36:37.126Z,27.01
2023-05-15T07:37:37.546Z,27.10
2023-05-15T07:38:37.207Z,27.14
2023-05-15T07:39:37.362Z,27.11
2023-05-15T07:40:37.304Z,27.11
2023-05-15T07:41:37.312Z,27.13
2023-05-15T07:42:37.358Z,27.15
2023-05-15T07:43:37.358Z,27.23
2023-05-15T07:44:37.364Z,27.30
2023-05-15T07:45:37.478Z,27.38
2023-05-15T07:46:37.461Z,27.44
2023-05-15T07:47:37.482Z,27.51
2023-05-15T07:48:37.430Z,27.59
2023-05-15T07:49:37.461Z,27.52
2023-05-15T07:50:37.464Z,27.42
2023-05-15T07:51:37.434Z,27.37
2023-05-15T07:52:37.520Z,27.33
2023-05-15T07:53:37.506Z,27.34
2023-05-15T07:54:37.523Z,27.31
2023-05-15T07:55:37.604Z,27.28
2023-05-15T07:56:37.550Z,27.27
2023-05-15T07:57:37.605Z,27.24
2023-05-15T07:58:37.629Z,27.21
2023-05-15T07:59:37.710Z,27.18
2023-05-15T08:00:37.661Z,27.17
2023-05-15T08:01:37.708Z,27.15
2023-05-15T08:02:37.948Z,27.15
2023-05-15T08:03:37.872Z,27.15
2023-05-15T08:04:37.989Z,27.14
2023-05-15T08:05:37.800Z,27.18
2023-05-15T08:06:37.935Z,27.14
2023-05-15T08:07:37.881Z,27.13
2023-05-15T08:08:37.881Z,27.14
2023-05-15T08:09:37.934Z,27.15
2023-05-15T08:10:37.952Z,27.15
2023-05-15T08:11:37.984Z,27.14
2023-05-15T08:12:38.009Z,27.15
2023-05-15T08:13:38.010Z,27.15
2023-05-15T08:14:38.137Z,27.15
2023-05-15T08:15:38.153Z,27.13
2023-05-15T08:16:38.103Z,27.14
2023-05-15T08:17:38.144Z,27.13
2023-05-15T08:18:38.201Z,27.11
2023-05-15T08:19:38.190Z,27.10
2023-05-15T08:20:38.239Z,27.10
2023-05-15T08:21:38.250Z,27.14
2023-05-15T08:22:38.273Z,27.13
2023-05-15T08:23:38.333Z,27.18
2023-05-15T08:24:38.401Z,27.17
2023-05-15T08:25:38.375Z,27.15
2023-05-15T08:26:38.434Z,27.20
2023-05-15T08:27:38.514Z,27.21
2023-05-15T08:28:38.487Z,27.20
2023-05-15T08:29:39.574Z,27.21
2023-05-15T08:30:38.521Z,27.24
2023-05-15T08:31:38.570Z,27.24
2023-05-15T08:32:38.637Z,27.24
2023-05-15T08:33:38.576Z,27.26
2023-05-15T08:34:38.731Z,27.27
2023-05-15T08:35:38.633Z,27.27
2023-05-15T08:36:39.648Z,27.28
2023-05-15T08:37:39.051Z,27.26
2023-05-15T08:38:38.662Z,27.27
2023-05-15T08:39:38.703Z,27.26
2023-05-15T08:40:40.234Z,27.24
2023-05-15T08:41:41.140Z,27.23
2023-05-15T08:42:39.060Z,27.18
2023-05-15T08:43:38.921Z,27.17
2023-05-15T08:44:38.941Z,27.18
2023-05-15T08:45:38.956Z,27.17
2023-05-15T08:46:39.005Z,27.15
2023-05-15T08:47:39.060Z,27.15
2023-05-15T08:48:39.150Z,27.13
2023-05-15T08:49:39.074Z,27.11
2023-05-15T08:50:39.134Z,27.11
2023-05-15T08:51:39.152Z,27.15
2023-05-15T08:52:39.531Z,27.30
2023-05-15T08:53:39.191Z,27.31
2023-05-15T08:54:39.201Z,27.20
2023-05-15T08:55:39.227Z,27.14
2023-05-15T08:56:39.253Z,27.09
2023-05-15T08:57:39.571Z,27.06
2023-05-15T08:58:39.348Z,27.03
2023-05-15T08:59:39.418Z,27.01
2023-05-15T09:00:39.498Z,26.97
2023-05-15T09:01:39.529Z,26.94
2023-05-15T09:02:39.701Z,26.91
2023-05-15T09:03:39.742Z,26.90
2023-05-15T09:04:39.637Z,26.86
2023-05-15T09:05:40.228Z,26.86
2023-05-15T09:06:39.753Z,26.86
2023-05-15T09:07:39.793Z,26.82
2023-05-15T09:08:39.863Z,26.82
2023-05-15T09:09:39.902Z,26.79
2023-05-15T09:10:39.980Z,26.78
2023-05-15T09:11:40.044Z,26.79
2023-05-15T09:12:40.082Z,26.78
2023-05-15T09:13:40.161Z,26.78
2023-05-15T09:14:40.208Z,26.78
2023-05-15T09:15:40.291Z,26.78
2023-05-15T09:16:40.397Z,26.76
2023-05-15T09:17:40.447Z,26.75
2023-05-15T09:18:40.586Z,26.72
2023-05-15T09:19:40.516Z,26.72
2023-05-15T09:20:40.579Z,26.72
2023-05-15T09:21:40.646Z,26.72
2023-05-15T09:22:41.564Z,26.70
2023-05-15T09:23:40.771Z,26.69
2023-05-15T09:24:40.837Z,26.69
2023-05-15T09:25:40.937Z,26.70
2023-05-15T09:26:40.928Z,26.68
2023-05-15T09:27:40.985Z,26.70
2023-05-15T09:28:41.105Z,26.75
2023-05-15T09:29:41.177Z,26.75
2023-05-15T09:30:41.198Z,26.76
2023-05-15T09:31:42.019Z,26.80
2023-05-15T09:32:41.291Z,26.82
2023-05-15T09:33:41.356Z,26.80
2023-05-15T09:34:41.370Z,26.82
2023-05-15T09:35:41.465Z,26.83
2023-05-15T09:36:41.463Z,26.83
2023-05-15T09:37:41.584Z,26.83
2023-05-15T09:38:41.581Z,26.85
2023-05-15T09:39:41.611Z,26.86
2023-05-15T09:40:41.660Z,26.85
2023-05-15T09:41:41.715Z,26.83
2023-05-15T09:42:41.810Z,26.83
2023-05-15T09:43:41.825Z,26.83
2023-05-15T09:44:41.874Z,26.83
2023-05-15T09:45:41.948Z,26.82
2023-05-15T09:46:42.051Z,26.80
2023-05-15T09:47:42.076Z,26.78
2023-05-15T09:48:42.163Z,26.76
2023-05-15T09:49:42.148Z,26.78
2023-05-15T09:50:42.248Z,26.75
2023-05-15T09:51:42.281Z,26.75
2023-05-15T09:52:42.357Z,26.72
2023-05-15T09:53:42.408Z,26.76
2023-05-15T09:54:42.460Z,26.70
2023-05-15T09:55:42.518Z,26.73
2023-05-15T09:56:42.566Z,26.73
2023-05-15T09:57:42.626Z,26.70
2023-05-15T09:58:42.688Z,26.69
2023-05-15T09:59:42.725Z,26.72
2023-05-15T10:00:48.673Z,26.72
2023-05-15T10:01:43.814Z,26.69
2023-05-15T10:02:42.808Z,26.70
2023-05-15T10:03:43.061Z,26.69
2023-05-15T10:04:42.724Z,26.69
2023-05-15T10:05:43.913Z,26.72
2023-05-15T10:06:43.343Z,26.73
2023-05-15T10:07:42.728Z,26.80
2023-05-15T10:08:43.066Z,26.86
2023-05-15T10:09:42.751Z,26.86
2023-05-15T10:10:42.821Z,26.87
2023-05-15T10:11:42.855Z,26.87
2023-05-15T10:12:42.927Z,26.89
2023-05-15T10:13:42.995Z,26.91
2023-05-15T10:14:42.998Z,26.90
2023-05-15T10:15:43.107Z,26.90
2023-05-15T10:16:43.188Z,26.90
2023-05-15T10:17:43.194Z,26.90
2023-05-15T10:18:43.615Z,26.89
2023-05-15T10:19:56.699Z,26.89
2023-05-15T10:20:44.294Z,26.90
2023-05-15T10:21:43.280Z,26.89
2023-05-15T10:22:43.281Z,26.85
2023-05-15T10:23:43.586Z,26.87
2023-05-15T10:24:43.252Z,26.87
2023-05-15T10:25:43.250Z,26.90
2023-05-15T10:26:43.256Z,26.89
2023-05-15T10:27:43.219Z,26.90
2023-05-15T10:28:44.959Z,26.91
2023-05-15T10:29:43.225Z,26.94
2023-05-15T10:30:43.215Z,26.99
2023-05-15T10:31:43.318Z,26.86
2023-05-15T10:32:43.319Z,26.82
2023-05-15T10:33:43.394Z,26.82
2023-05-15T10:34:43.419Z,26.68
2023-05-15T10:35:43.448Z,26.58
2023-05-15T10:36:43.520Z,26.48
2023-05-15T10:37:43.539Z,26.41
2023-05-15T10:38:43.562Z,26.27
2023-05-15T10:39:43.581Z,26.25
2023-05-15T10:40:43.596Z,26.25
2023-05-15T10:41:43.616Z,26.20
2023-05-15T10:42:43.651Z,26.20
2023-05-15T10:43:43.695Z,26.20
2023-05-15T10:44:43.725Z,26.20
2023-05-15T10:45:43.734Z,26.15
2023-05-15T10:46:43.802Z,26.17
2023-05-15T10:47:43.822Z,26.18
2023-05-15T10:48:43.870Z,26.18
2023-05-15T10:49:43.862Z,26.17
2023-05-15T10:50:43.884Z,26.20
2023-05-15T10:51:43.948Z,26.21
2023-05-15T10:52:43.948Z,26.21
2023-05-15T10:53:43.972Z,26.24
2023-05-15T10:54:44.003Z,26.24
2023-05-15T10:55:44.082Z,26.27
2023-05-15T10:56:44.040Z,26.27
2023-05-15T10:57:44.058Z,26.27
2023-05-15T10:58:44.072Z,26.31
2023-05-15T10:59:44.095Z,26.29
2023-05-15T11:00:44.202Z,26.31
2023-05-15T11:01:44.193Z,26.34
2023-05-15T11:02:44.185Z,26.34
2023-05-15T11:03:49.457Z,26.34
2023-05-15T11:04:45.180Z,26.36
2023-05-15T11:05:44.155Z,26.36
2023-05-15T11:06:44.118Z,26.36
2023-05-15T11:07:44.169Z,26.36
2023-05-15T11:08:44.124Z,26.36
2023-05-15T11:09:44.115Z,26.35
2023-05-15T11:10:44.143Z,26.34
2023-05-15T11:11:44.118Z,26.35
2023-05-15T11:12:44.108Z,26.32
2023-05-15T11:13:44.613Z,26.28
2023-05-15T11:14:44.129Z,26.24
2023-05-15T11:15:44.125Z,26.21
2023-05-15T11:16:44.125Z,26.20
2023-05-15T11:17:44.114Z,26.15
2023-05-15T11:18:44.184Z,26.12
2023-05-15T11:19:44.077Z,26.08
2023-05-15T11:20:44.069Z,26.07
2023-05-15T11:21:44.083Z,26.01
2023-05-15T11:22:44.189Z,26.04
2023-05-15T11:23:44.607Z,26.00
2023-05-15T11:24:44.236Z,25.98
2023-05-15T11:25:44.288Z,25.95
2023-05-15T11:26:44.317Z,25.94
2023-05-15T11:27:44.410Z,25.91
2023-05-15T11:28:44.448Z,25.88
2023-05-15T11:29:44.557Z,25.87
2023-05-15T11:30:44.602Z,25.85
2023-05-15T11:31:44.627Z,25.83
2023-05-15T11:32:44.659Z,25.80
2023-05-15T11:33:44.651Z,25.76
2023-05-15T11:34:44.649Z,25.74
2023-05-15T11:35:44.681Z,25.70
2023-05-15T11:36:44.667Z,25.69
2023-05-15T11:37:44.685Z,25.67
2023-05-15T11:38:44.702Z,25.67
2023-05-15T11:39:44.740Z,25.71
2023-05-15T11:40:44.781Z,25.71
2023-05-15T11:41:44.853Z,25.71
2023-05-15T11:42:44.915Z,25.77
2023-05-15T11:43:45.000Z,25.79
2023-05-15T11:44:44.999Z,25.81
2023-05-15T11:45:45.044Z,25.81
2023-05-15T11:46:45.147Z,25.83
2023-05-15T11:47:45.173Z,25.88
2023-05-15T11:48:45.213Z,25.88
2023-05-15T11:49:45.231Z,25.90
2023-05-15T11:50:45.289Z,25.95
2023-05-15T11:51:45.318Z,25.94
2023-05-15T11:52:45.342Z,25.98
2023-05-15T11:53:45.372Z,25.98
2023-05-15T11:54:45.413Z,26.00
2023-05-15T11:55:45.463Z,26.01
2023-05-15T11:56:45.478Z,25.98
2023-05-15T11:57:45.522Z,26.01
2023-05-15T11:58:45.529Z,26.01
2023-05-15T11:59:45.618Z,26.02
2023-05-15T12:00:45.636Z,26.04
2023-05-15T12:01:45.651Z,26.02
2023-05-15T12:02:45.743Z,26.02
2023-05-15T12:03:45.835Z,26.02
2023-05-15T12:04:45.876Z,26.04
2023-05-15T12:05:57.533Z,26.07
2023-05-15T12:06:46.752Z,26.04
2023-05-15T12:07:45.758Z,26.05
2023-05-15T12:08:46.118Z,26.04
2023-05-15T12:09:45.764Z,26.07
2023-05-15T12:10:46.650Z,26.05
2023-05-15T12:11:45.721Z,26.09
2023-05-15T12:12:45.724Z,26.07
2023-05-15T12:13:46.137Z,26.07
2023-05-15T12:14:45.698Z,26.08
2023-05-15T12:15:45.681Z,26.08
2023-05-15T12:16:45.794Z,26.07
2023-05-15T12:17:45.704Z,26.08
2023-05-15T12:18:45.734Z,26.05
2023-05-15T12:19:45.682Z,26.08
2023-05-15T12:20:45.679Z,26.08
2023-05-15T12:21:45.669Z,26.08
2023-05-15T12:22:45.669Z,26.08
2023-05-15T12:23:53.306Z,26.08
2023-05-15T12:24:46.650Z,26.08
2023-05-15T12:25:45.643Z,26.11
2023-05-15T12:26:45.634Z,26.08
2023-05-15T12:27:45.631Z,26.08
2023-05-15T12:28:45.631Z,26.08
2023-05-15T12:29:45.620Z,26.08
2023-05-15T12:30:45.597Z,26.11
2023-05-15T12:31:45.631Z,26.08
2023-05-15T12:32:45.633Z,26.09
2023-05-15T12:33:45.585Z,26.09
2023-05-15T12:34:45.579Z,26.09
2023-05-15T12:35:45.563Z,26.08
2023-05-15T12:36:45.574Z,26.08
2023-05-15T12:37:45.561Z,26.08
2023-05-15T12:38:45.559Z,26.08
2023-05-15T12:39:45.560Z,26.08
2023-05-15T12:40:45.552Z,26.08
2023-05-15T12:41:47.157Z,26.07
2023-05-15T12:42:45.536Z,26.07
2023-05-15T12:43:45.567Z,26.07
2023-05-15T12:44:45.587Z,26.07
2023-05-15T12:45:45.762Z,26.07
2023-05-15T12:46:45.645Z,26.08
2023-05-15T12:47:45.717Z,26.07
2023-05-15T12:48:45.741Z,26.05
2023-05-15T12:49:45.755Z,26.04
2023-05-15T12:50:45.761Z,26.02
2023-05-15T12:51:45.822Z,26.05
2023-05-15T12:52:45.821Z,26.05